createdAt,value
2018-12-09T00:03:06.507Z,3.83
2018-12-09T00:08:09.609Z,3.33
2018-12-09T00:13:12.687Z,3.20
2018-12-09T00:18:15.779Z,3.07
2018-12-09T00:23:18.884Z,2.90
2018-12-09T00:28:21.991Z,2.83
2018-12-09T00:33:25.073Z,4.17
2018-12-09T00:38:28.150Z,3.03
2018-12-09T00:43:31.244Z,3.47
2018-12-09T00:48:34.353Z,3.00
2018-12-09T00:53:37.478Z,3.40
2018-12-09T00:58:40.572Z,4.03
2018-12-09T01:03:43.728Z,4.60
2018-12-09T01:08:46.888Z,4.00
2018-12-09T01:13:49.989Z,4.37
2018-12-09T01:18:53.079Z,3.97
2018-12-09T01:23:57.106Z,3.87
2018-12-09T01:29:00.272Z,3.50
2018-12-09T01:34:03.496Z,3.70
2018-12-09T01:39:06.892Z,4.17
2018-12-09T01:44:10.059Z,3.87
2018-12-09T01:49:13.185Z,4.10
2018-12-09T01:54:16.378Z,3.70
2018-12-09T01:59:19.544Z,3.77
2018-12-09T02:04:22.747Z,3.83
2018-12-09T02:09:25.965Z,4.07
2018-12-09T02:14:29.035Z,3.80
2018-12-09T02:19:32.192Z,4.37
2018-12-09T02:24:35.388Z,3.83
2018-12-09T02:29:38.548Z,3.63
2018-12-09T02:40:02.137Z,4.33
2018-12-09T02:45:05.809Z,3.30
2018-12-09T02:50:08.916Z,4.00
2018-12-09T02:55:12.078Z,3.50
2018-12-09T03:00:15.194Z,3.63
2018-12-09T03:05:18.390Z,4.27
2018-12-09T03:10:21.702Z,4.10
2018-12-09T03:15:24.789Z,4.33
2018-12-09T03:20:27.878Z,4.10
2018-12-09T03:25:31.177Z,4.23
2018-12-09T03:30:34.329Z,4.50
2018-12-09T03:35:37.512Z,4.43
2018-12-09T03:40:40.658Z,3.97
2018-12-09T03:45:43.817Z,3.77
2018-12-09T03:50:46.981Z,4.43
2018-12-09T03:55:50.151Z,3.77
2018-12-09T04:00:53.357Z,3.43
2018-12-09T04:05:56.466Z,3.30
2018-12-09T04:10:59.685Z,4.07
2018-12-09T04:16:04.051Z,4.00
2018-12-09T04:21:07.296Z,3.90
2018-12-09T04:26:10.400Z,3.30
2018-12-09T04:31:13.473Z,3.77
2018-12-09T04:36:16.642Z,3.47
2018-12-09T04:41:19.828Z,3.67
2018-12-09T04:46:23.048Z,3.40
2018-12-09T04:51:29.976Z,2.60
2018-12-09T04:56:33.148Z,2.85
2018-12-09T05:01:36.226Z,2.90
2018-12-09T05:06:39.389Z,3.00
2018-12-09T05:11:42.520Z,3.73
2018-12-09T05:16:45.604Z,3.90
2018-12-09T05:21:48.684Z,3.77
2018-12-09T05:26:51.814Z,3.57
2018-12-09T05:31:56.229Z,3.60
2018-12-09T05:36:59.309Z,3.50
2018-12-09T05:42:02.376Z,3.45
2018-12-09T05:47:05.454Z,3.77
2018-12-09T05:52:08.610Z,3.67
2018-12-09T05:57:11.776Z,4.30
2018-12-09T06:07:53.619Z,4.00
2018-12-09T06:12:56.691Z,3.93
2018-12-09T06:17:59.768Z,4.23
2018-12-09T06:23:02.881Z,3.50
2018-12-09T06:28:05.955Z,3.73
2018-12-09T06:33:09.034Z,4.07
2018-12-09T06:38:12.142Z,3.73
2018-12-09T06:43:15.338Z,3.57
2018-12-09T06:48:18.500Z,4.30
2018-12-09T06:53:21.623Z,3.50
2018-12-09T06:58:24.707Z,3.73
2018-12-09T07:03:27.887Z,3.50
2018-12-09T07:08:31.057Z,3.00
2018-12-09T07:13:34.240Z,3.27
2018-12-09T07:18:37.435Z,3.50
2018-12-09T07:23:40.503Z,3.60
2018-12-09T07:28:43.579Z,4.20
2018-12-09T07:33:46.643Z,3.33
2018-12-09T07:38:49.723Z,3.00
2018-12-09T07:43:52.880Z,3.57
2018-12-09T07:48:55.961Z,3.00
2018-12-09T07:53:59.032Z,2.97
2018-12-09T07:59:02.103Z,3.00
2018-12-09T08:04:05.346Z,3.13
2018-12-09T08:09:08.443Z,2.90
2018-12-09T08:14:11.518Z,3.43
2018-12-09T08:19:14.620Z,3.12
2018-12-09T08:24:17.710Z,3.13
2018-12-09T08:29:20.783Z,3.10
2018-12-09T08:34:23.853Z,3.80
2018-12-09T08:39:26.937Z,3.70
2018-12-09T08:44:30.045Z,3.00
2018-12-09T08:49:33.113Z,3.13
2018-12-09T08:54:36.186Z,3.63
2018-12-09T08:59:39.329Z,2.80
2018-12-09T09:04:42.449Z,3.40
2018-12-09T09:09:45.566Z,4.23
2018-12-09T09:14:48.670Z,4.70
2018-12-09T09:19:51.740Z,3.27
2018-12-09T09:24:54.816Z,3.60
2018-12-09T09:29:57.899Z,5.10
2018-12-09T09:35:01.029Z,3.10
2018-12-09T09:40:05.700Z,3.47
2018-12-09T09:45:08.855Z,3.20
2018-12-09T09:50:12.201Z,3.50
2018-12-09T09:55:15.548Z,3.35
2018-12-09T10:00:18.618Z,3.37
2018-12-09T10:05:21.802Z,3.37
2018-12-09T10:10:24.892Z,2.60
2018-12-09T10:15:28.000Z,3.00
2018-12-09T10:20:31.102Z,2.33
2018-12-09T10:25:34.293Z,2.70
2018-12-09T10:30:37.358Z,2.60
2018-12-09T10:35:40.446Z,2.57
2018-12-09T10:40:43.651Z,3.13
2018-12-09T10:45:46.756Z,2.73
2018-12-09T10:50:49.839Z,2.53
2018-12-09T10:55:52.997Z,2.33
2018-12-09T11:00:58.188Z,2.27
2018-12-09T11:06:01.295Z,1.73
2018-12-09T11:11:04.433Z,1.67
2018-12-09T11:16:07.623Z,2.87
2018-12-09T11:21:10.727Z,1.70
2018-12-09T11:26:13.832Z,3.00
2018-12-09T11:31:16.966Z,1.70
2018-12-09T11:36:20.146Z,1.43
2018-12-09T11:41:23.268Z,2.30
2018-12-09T11:46:26.375Z,2.00
2018-12-09T11:51:29.443Z,1.63
2018-12-09T11:56:32.575Z,1.70
2018-12-09T12:01:35.679Z,1.30
2018-12-09T12:06:38.760Z,1.50
2018-12-09T12:11:41.873Z,1.77
2018-12-09T12:16:44.950Z,1.40
2018-12-09T12:21:48.071Z,1.30
2018-12-09T12:26:51.341Z,1.40
2018-12-09T12:31:54.600Z,1.40
2018-12-09T12:36:57.689Z,1.60
2018-12-09T12:42:00.784Z,1.50
2018-12-09T12:47:03.953Z,1.70
2018-12-09T12:52:07.119Z,1.40
2018-12-09T12:57:10.289Z,1.50
2018-12-09T13:02:13.423Z,1.43
2018-12-09T13:07:16.491Z,1.20
2018-12-09T13:12:19.597Z,1.67
2018-12-09T13:17:22.667Z,1.30
2018-12-09T13:22:25.781Z,1.60
2018-12-09T13:27:28.885Z,1.70
2018-12-09T13:32:32.074Z,1.70
2018-12-09T13:37:36.061Z,2.03
2018-12-09T13:42:39.198Z,2.37
2018-12-09T13:47:42.277Z,1.80
2018-12-09T13:52:45.375Z,1.60
2018-12-09T13:57:48.558Z,1.80
2018-12-09T14:02:51.633Z,1.60
2018-12-09T14:07:54.737Z,1.52
2018-12-09T14:12:57.844Z,1.10
2018-12-09T14:18:00.977Z,1.50
2018-12-09T14:23:04.162Z,1.30
2018-12-09T14:28:07.283Z,1.60
2018-12-09T14:33:10.439Z,1.70
2018-12-09T14:38:13.593Z,2.40
2018-12-09T14:43:16.746Z,2.70
2018-12-09T14:48:19.861Z,3.23
2018-12-09T14:53:22.964Z,6.77
2018-12-09T14:58:26.037Z,2.63
2018-12-09T15:03:29.169Z,2.77
2018-12-09T15:08:32.236Z,3.07
2018-12-09T15:13:35.348Z,2.70
2018-12-09T15:18:38.440Z,3.00
2018-12-09T15:23:41.548Z,3.20
2018-12-09T15:28:44.686Z,3.07
2018-12-09T15:33:47.797Z,3.10
2018-12-09T15:38:50.881Z,3.17
2018-12-09T15:43:53.983Z,2.50
2018-12-09T15:48:57.060Z,3.00
2018-12-09T15:54:00.284Z,3.63
2018-12-09T15:59:03.401Z,3.73
2018-12-09T16:04:06.495Z,4.10
2018-12-09T16:09:09.659Z,12.57
2018-12-09T16:14:12.760Z,4.80
2018-12-09T16:19:15.862Z,4.00
2018-12-09T16:24:18.967Z,3.80
2018-12-09T16:29:22.132Z,3.80
2018-12-09T16:34:25.259Z,4.57
2018-12-09T16:39:29.178Z,3.63
2018-12-09T16:44:32.794Z,3.23
2018-12-09T16:54:32.365Z,2.90
2018-12-09T16:59:35.458Z,3.47
2018-12-09T17:04:38.579Z,3.30
2018-12-09T17:09:41.677Z,2.47
2018-12-09T17:14:45.569Z,2.70
2018-12-09T17:19:48.651Z,2.77
2018-12-09T17:24:51.766Z,2.83
2018-12-09T17:29:54.864Z,2.70
2018-12-09T17:34:57.986Z,4.70
2018-12-09T17:40:01.103Z,5.03
2018-12-09T17:45:04.397Z,3.03
2018-12-09T17:50:08.464Z,3.53
2018-12-09T17:55:11.574Z,2.92
2018-12-09T18:00:14.764Z,2.93
2018-12-09T18:05:17.949Z,3.43
2018-12-09T18:10:22.066Z,3.47
2018-12-09T18:15:25.201Z,3.70
2018-12-09T18:20:28.328Z,3.17
2018-12-09T18:25:31.423Z,3.00
2018-12-09T18:30:34.608Z,3.80
2018-12-09T18:35:37.881Z,3.60
2018-12-09T18:40:41.028Z,3.30
2018-12-09T18:45:44.130Z,3.60
2018-12-09T18:50:47.245Z,3.57
2018-12-09T18:55:50.359Z,3.30
2018-12-09T19:00:54.400Z,4.15
2018-12-09T19:05:57.722Z,4.30
2018-12-09T19:11:00.929Z,3.83
2018-12-09T19:16:04.091Z,3.77
2018-12-09T19:21:07.199Z,4.13
2018-12-09T19:26:10.341Z,3.67
2018-12-09T19:31:13.664Z,3.57
2018-12-09T19:36:16.783Z,2.85
2018-12-09T19:41:19.942Z,3.20
2018-12-09T19:46:23.080Z,3.80
2018-12-09T19:51:26.262Z,3.60
2018-12-09T19:56:29.393Z,4.20
2018-12-09T20:01:32.670Z,3.60
2018-12-09T20:06:35.779Z,3.67
2018-12-09T20:11:38.886Z,4.10
2018-12-09T20:16:41.970Z,3.57
2018-12-09T20:21:45.064Z,3.57
2018-12-09T20:26:48.175Z,3.70
2018-12-09T20:31:51.274Z,3.70
2018-12-09T20:36:54.380Z,3.03
2018-12-09T20:41:57.507Z,3.13
2018-12-09T20:47:00.587Z,3.10
2018-12-09T20:52:03.742Z,3.20
2018-12-09T20:57:06.889Z,3.20
2018-12-09T21:02:09.996Z,3.55
2018-12-09T21:07:13.178Z,3.23
2018-12-09T21:12:16.332Z,2.60
2018-12-09T21:17:19.462Z,3.13
2018-12-09T21:22:22.617Z,3.10
2018-12-09T21:27:25.726Z,3.90
2018-12-09T21:32:28.788Z,3.75
2018-12-09T21:37:31.884Z,3.80
2018-12-09T21:42:35.044Z,3.83
2018-12-09T21:47:38.151Z,3.90
2018-12-09T21:52:41.239Z,3.60
2018-12-09T21:57:44.328Z,4.90
2018-12-09T22:02:47.456Z,4.27
2018-12-09T22:07:50.523Z,3.40
2018-12-09T22:12:53.789Z,3.77
2018-12-09T22:17:56.892Z,3.50
2018-12-09T22:22:59.963Z,3.20
2018-12-09T22:28:03.037Z,3.40
2018-12-09T22:33:06.113Z,3.33
2018-12-09T22:38:09.192Z,3.40
2018-12-09T22:43:12.342Z,3.60
2018-12-09T22:48:15.424Z,3.63
2018-12-09T22:53:18.500Z,3.03
2018-12-09T22:58:21.740Z,3.17
2018-12-09T23:03:24.806Z,3.03
2018-12-09T23:08:27.903Z,2.70
2018-12-09T23:13:30.989Z,3.00
2018-12-09T23:18:34.165Z,2.92
2018-12-09T23:23:37.290Z,2.77
2018-12-09T23:28:40.348Z,3.73
2018-12-09T23:33:43.448Z,4.20
2018-12-09T23:38:46.584Z,4.27
2018-12-09T23:43:49.693Z,4.73
2018-12-09T23:48:52.773Z,4.20
2018-12-09T23:53:55.886Z,4.00
2018-12-09T23:58:59.064Z,4.50
